Aeroporto :
LOGIN :

Iscrizione | Disclaimer

   EN    FR    IT 

 










Sommario :    VFR   VFR Marginale   IFR   IFR Intensivo   IFR Molto Intensivo
Visibilità : 
Base nubi : 
>= 8 km
>= 3000ft
5 / 8 km
1000 / 3000 ft
1500m / 5 km
500 / 1000 ft
800 / 1500m
200 / 500 ft
< 800m
< 200 ft
Simboli :   Temporali  Nebbia  Neve Forte  Precipitazioni Forti  Vento > 20 kt
SIGMETs :   Varie  Temporali  Ghiacco  Turbolenza  Onda orograficha  Ceneri Vulcaniche







- Altitudine del aeroporto : 505 ft
- Codice IATA : SXB
- Carte del aeroporto


LFST - Strasbourg

ULTIMO METAR :
  • 212230Z AUTO 04014KT CAVOK 01/M05 Q1018 NOSIG

METARs OBSOLETI :
  • 212200Z AUTO 04014KT 9999 NSC 01/M05 Q1018 NOSIG
  • 212130Z AUTO 02010KT CAVOK 01/M04 Q1018 NOSIG
  • 212100Z AUTO 02009KT CAVOK 01/M04 Q1018 NOSIG
  • 212030Z AUTO 01008KT CAVOK 01/M04 Q1019 NOSIG
  • 212000Z AUTO 02007KT CAVOK 01/M04 Q1019 NOSIG

TAF TAF LFST
Valido dal 21 a 18 ore il 22 a 18 ore UTC


211700Z 2118/2218 02010KT CAVOK
BECMG 2200/2203 SCT015
PROB30
TEMPO 2203/2208 BKN010
BECMG 2205/2207 03015G25KT
Nessun NOTAM noto per questo aeroporto.
1 SIGMET conosciuto per la FIR Reims (LFEE) :
 
Turbolenza severa
LFEE SIGMET 1 VALID 220200/220600 LFPW
LFEE REIMS FIR/UIR SEV TURB FCST WI N4630 E00515 - N4630 E00445 - N4730 E00415 - N4830 E00530 - N4900 E00445 - N4930 E00600 - N4915 E00700 - N4630 E00515 FL170/250 STNR NC=



MetMap, La meteo Aeronautica in un colpo d'occhio ! - Copyright ORBIFLY Dicembre 2007 - Disclaimer

ORBIFLY MET'MAP TEAM :

Programmazione e sviluppo : Alexandra Zaïnal
Concezione e sviluppo : Baudouin d'Aumeries
Co-Programmazione e sviluppo : Marc-Olivier Méhu
Supporto tecnico e logistico : Manuel Goepfert
Aiuto per la traduzione : Arnaldo La Scala

Contatto : metmap@orbifly.com




FONTI E CREDITI :

   NOAA